createdAt,value
2022-12-13T00:01:27.830Z,12.40
2022-12-13T00:03:56.438Z,13.10
2022-12-13T00:06:25.201Z,12.90
2022-12-13T00:08:52.412Z,12.90
2022-12-13T00:11:19.220Z,13.80
2022-12-13T00:13:47.259Z,11.50
2022-12-13T00:16:16.885Z,10.30
2022-12-13T00:18:46.658Z,11.90
2022-12-13T00:21:16.313Z,12.10
2022-12-13T00:23:43.051Z,11.70
2022-12-13T00:26:13.555Z,11.40
2022-12-13T00:28:41.315Z,10.00
2022-12-13T00:31:51.678Z,9.70
2022-12-13T00:33:55.764Z,10.70
2022-12-13T00:36:22.158Z,9.80
2022-12-13T00:38:59.641Z,8.50
2022-12-13T00:41:29.580Z,9.20
2022-12-13T00:43:56.411Z,10.20
2022-12-13T00:46:23.328Z,8.30
2022-12-13T00:48:51.757Z,9.20
2022-12-13T00:51:19.880Z,8.10
2022-12-13T00:53:46.204Z,8.00
2022-12-13T00:56:15.139Z,8.30
2022-12-13T00:58:41.598Z,9.70
2022-12-13T01:01:14.203Z,8.00
2022-12-13T01:03:42.136Z,8.50
2022-12-13T01:06:15.893Z,7.80
2022-12-13T01:08:43.699Z,8.90
2022-12-13T01:11:10.899Z,7.40
2022-12-13T01:13:37.949Z,7.60
2022-12-13T01:16:09.108Z,8.10
2022-12-13T01:18:36.540Z,7.50
2022-12-13T01:21:10.523Z,6.80
2022-12-13T01:23:37.361Z,7.70
2022-12-13T01:26:06.286Z,8.10
2022-12-13T01:28:32.957Z,8.40
2022-12-13T01:31:02.419Z,8.80
2022-12-13T01:33:29.805Z,7.60
2022-12-13T01:36:00.349Z,9.80
2022-12-13T01:38:27.080Z,8.30
2022-12-13T01:41:03.019Z,9.10
2022-12-13T01:43:44.143Z,10.80
2022-12-13T01:46:11.565Z,8.70
2022-12-13T01:48:45.619Z,9.50
2022-12-13T01:51:16.713Z,9.30
2022-12-13T01:53:45.701Z,8.90
2022-12-13T01:56:22.445Z,7.50
2022-12-13T01:58:52.503Z,7.10
2022-12-13T02:01:19.882Z,8.30
2022-12-13T02:03:46.230Z,7.40
2022-12-13T02:06:16.925Z,9.00
2022-12-13T02:08:46.132Z,9.90
2022-12-13T02:11:13.467Z,14.40
2022-12-13T02:13:41.563Z,12.40
2022-12-13T02:16:25.188Z,9.40
2022-12-13T02:20:04.483Z,8.20
2022-12-13T02:23:24.310Z,9.80
2022-12-13T02:26:08.057Z,10.60
2022-12-13T02:29:30.010Z,14.70
2022-12-13T02:31:57.527Z,14.50
2022-12-13T02:34:38.233Z,11.70
2022-12-13T02:37:18.552Z,10.60
2022-12-13T02:39:57.800Z,9.50
2022-12-13T02:42:34.373Z,11.20
2022-12-13T02:45:20.535Z,10.50
2022-12-13T02:47:51.920Z,9.10
2022-12-13T02:50:19.958Z,7.40
2022-12-13T02:52:46.638Z,6.70
2022-12-13T02:55:16.041Z,7.70
2022-12-13T02:57:44.685Z,6.10
2022-12-13T03:00:18.468Z,7.50
2022-12-13T03:03:20.898Z,6.40
2022-12-13T03:06:23.338Z,5.20
2022-12-13T03:09:19.791Z,6.30
2022-12-13T03:12:23.487Z,6.10
2022-12-13T03:15:20.468Z,7.70
2022-12-13T03:17:58.605Z,6.60
2022-12-13T03:20:27.808Z,5.70
2022-12-13T03:22:55.465Z,6.40
2022-12-13T03:25:30.986Z,5.80
2022-12-13T03:28:01.344Z,6.60
2022-12-13T03:30:31.124Z,7.20
2022-12-13T03:32:57.725Z,6.90
2022-12-13T03:35:24.732Z,6.30
2022-12-13T03:38:01.791Z,6.20
2022-12-13T03:40:29.477Z,6.20
2022-12-13T03:42:55.785Z,6.50
2022-12-13T03:45:22.126Z,7.10
2022-12-13T03:47:48.488Z,7.10
2022-12-13T03:50:27.073Z,8.40
2022-12-13T03:53:01.119Z,10.30
2022-12-13T03:55:28.135Z,10.70
2022-12-13T03:57:55.213Z,7.90
2022-12-13T04:00:21.921Z,7.90
2022-12-13T04:02:48.435Z,7.70
2022-12-13T04:05:15.411Z,8.70
2022-12-13T04:07:48.081Z,7.70
2022-12-13T04:10:25.952Z,8.10
2022-12-13T04:13:12.310Z,6.70
2022-12-13T04:15:38.929Z,9.10
2022-12-13T04:18:06.084Z,8.60
2022-12-13T04:20:32.434Z,7.40
2022-12-13T04:22:58.731Z,7.70
2022-12-13T04:25:27.084Z,8.10
2022-12-13T04:27:53.622Z,7.40
2022-12-13T04:30:20.347Z,8.10
2022-12-13T04:32:46.659Z,9.20
2022-12-13T04:35:14.082Z,8.10
2022-12-13T04:37:43.429Z,9.20
2022-12-13T04:40:10.995Z,8.20
2022-12-13T04:42:37.440Z,7.10
2022-12-13T04:45:07.545Z,8.30
2022-12-13T04:47:34.052Z,9.10
2022-12-13T04:50:00.426Z,8.30
2022-12-13T04:52:26.881Z,8.50
2022-12-13T04:54:55.538Z,10.10
2022-12-13T04:57:23.246Z,8.40
2022-12-13T04:59:49.904Z,8.90
2022-12-13T05:02:23.453Z,9.00
2022-12-13T05:04:53.603Z,9.30
2022-12-13T05:07:22.844Z,11.20
2022-12-13T05:09:49.372Z,11.80
2022-12-13T05:12:23.277Z,10.00
2022-12-13T05:14:51.213Z,9.40
2022-12-13T05:17:17.666Z,11.00
2022-12-13T05:19:44.044Z,8.70
2022-12-13T05:22:19.403Z,9.80
2022-12-13T05:24:48.115Z,9.20
2022-12-13T05:27:24.569Z,10.70
2022-12-13T05:30:03.173Z,8.80
2022-12-13T05:32:43.330Z,8.80
2022-12-13T05:35:23.068Z,10.70
2022-12-13T05:37:53.414Z,10.20
2022-12-13T05:40:28.821Z,10.90
2022-12-13T05:43:01.465Z,11.00
2022-12-13T05:45:30.787Z,9.50
2022-12-13T05:47:58.001Z,10.30
2022-12-13T05:50:25.041Z,9.40
2022-12-13T05:52:51.967Z,10.70
2022-12-13T05:55:19.543Z,10.10
2022-12-13T05:57:50.675Z,9.30
2022-12-13T06:00:28.808Z,11.90
2022-12-13T06:03:00.913Z,12.00
2022-12-13T06:05:29.574Z,11.60
2022-12-13T06:07:58.158Z,10.90
2022-12-13T06:10:34.721Z,10.50
2022-12-13T06:13:21.626Z,10.60
2022-12-13T06:16:01.349Z,9.60
2022-12-13T06:18:36.423Z,10.30
2022-12-13T06:21:07.006Z,13.50
2022-12-13T06:23:37.877Z,12.60
2022-12-13T06:26:07.232Z,12.00
2022-12-13T06:28:35.097Z,11.90
2022-12-13T06:31:04.994Z,12.10
2022-12-13T06:33:35.903Z,9.30
2022-12-13T06:36:04.464Z,9.50
2022-12-13T06:38:33.190Z,9.50
2022-12-13T06:41:12.201Z,9.40
2022-12-13T06:43:44.437Z,8.40
2022-12-13T06:46:11.910Z,9.90
2022-12-13T06:48:41.929Z,7.70
2022-12-13T06:51:08.899Z,9.20
2022-12-13T06:53:43.212Z,9.50
2022-12-13T06:56:12.305Z,10.00
2022-12-13T06:58:40.154Z,11.20
2022-12-13T07:01:14.634Z,13.20
2022-12-13T07:03:57.672Z,11.20
2022-12-13T07:06:25.448Z,9.70
2022-12-13T07:08:55.215Z,8.60
2022-12-13T07:11:27.302Z,10.50
2022-12-13T07:13:54.164Z,10.60
2022-12-13T07:16:22.211Z,9.90
2022-12-13T07:18:54.498Z,9.80
2022-12-13T07:21:29.749Z,10.10
2022-12-13T07:23:57.004Z,11.50
2022-12-13T07:26:24.416Z,10.40
2022-12-13T07:28:55.071Z,10.20
2022-12-13T07:31:24.834Z,11.30
2022-12-13T07:33:51.881Z,11.30
2022-12-13T07:36:23.170Z,14.30
2022-12-13T07:38:54.779Z,11.50
2022-12-13T07:41:25.497Z,10.60
2022-12-13T07:43:55.832Z,10.70
2022-12-13T07:46:33.032Z,10.60
2022-12-13T07:49:02.275Z,12.40
2022-12-13T07:51:28.849Z,13.60
2022-12-13T07:53:55.503Z,14.30
2022-12-13T07:56:22.249Z,14.80
2022-12-13T07:58:48.620Z,13.40
2022-12-13T08:01:14.934Z,14.90
2022-12-13T08:03:42.083Z,14.40
2022-12-13T08:06:10.618Z,13.70
2022-12-13T08:08:38.735Z,16.10
2022-12-13T08:11:07.886Z,15.00
2022-12-13T08:13:35.642Z,14.40
2022-12-13T08:16:05.756Z,14.50
2022-12-13T08:18:53.104Z,17.00
2022-12-13T08:21:54.741Z,13.90
2022-12-13T08:24:24.500Z,15.20
2022-12-13T08:26:56.961Z,13.40
2022-12-13T08:29:34.104Z,14.00
2022-12-13T08:32:04.663Z,16.20
2022-12-13T08:34:31.243Z,15.70
2022-12-13T08:37:02.949Z,13.90
2022-12-13T08:39:34.230Z,15.00
2022-12-13T08:42:16.606Z,13.90
2022-12-13T08:44:50.196Z,15.30
2022-12-13T08:47:24.460Z,15.20
2022-12-13T08:50:01.265Z,16.90
2022-12-13T08:52:30.833Z,16.10
2022-12-13T08:54:57.553Z,15.20
2022-12-13T08:57:23.913Z,14.10
2022-12-13T08:59:50.612Z,15.50
2022-12-13T09:02:17.505Z,15.00
2022-12-13T09:04:44.377Z,16.30
2022-12-13T09:07:11.806Z,19.30
2022-12-13T09:09:38.699Z,15.70
2022-12-13T09:12:10.293Z,15.40
2022-12-13T09:14:45.672Z,14.00
2022-12-13T09:17:24.929Z,15.00
2022-12-13T09:19:58.531Z,17.10
2022-12-13T09:22:33.271Z,14.90
2022-12-13T09:25:03.115Z,15.70
2022-12-13T09:27:30.865Z,18.40
2022-12-13T09:30:12.404Z,16.60
2022-12-13T09:32:40.643Z,16.70
2022-12-13T09:35:08.862Z,16.60
2022-12-13T09:37:39.866Z,13.70
2022-12-13T09:40:29.443Z,14.20
2022-12-13T09:43:12.254Z,15.50
2022-12-13T09:45:45.658Z,14.90
2022-12-13T09:48:22.540Z,16.40
2022-12-13T09:50:58.472Z,13.90
2022-12-13T09:53:39.830Z,15.20
2022-12-13T09:56:14.618Z,16.70
2022-12-13T09:58:41.631Z,21.70
2022-12-13T10:01:11.946Z,18.90
2022-12-13T10:03:43.544Z,16.70
2022-12-13T10:06:22.738Z,15.20
2022-12-13T10:08:58.720Z,12.40
2022-12-13T10:11:32.571Z,14.20
2022-12-13T10:14:08.128Z,13.10
2022-12-13T10:16:35.867Z,14.80
2022-12-13T10:19:29.317Z,13.40
2022-12-13T10:22:01.837Z,11.50
2022-12-13T10:24:47.949Z,16.60
2022-12-13T10:27:18.639Z,13.00
2022-12-13T10:30:29.012Z,13.80
2022-12-13T10:32:59.349Z,14.90
2022-12-13T10:35:26.035Z,14.30
2022-12-13T10:37:54.105Z,10.80
2022-12-13T10:40:52.989Z,12.50
2022-12-13T10:43:21.992Z,24.50
2022-12-13T10:45:56.621Z,14.60
2022-12-13T10:48:38.139Z,15.20
2022-12-13T10:51:12.931Z,11.30
2022-12-13T10:53:48.273Z,14.30
2022-12-13T10:56:23.219Z,11.90
2022-12-13T10:59:11.861Z,11.70
2022-12-13T11:01:43.190Z,12.30
2022-12-13T11:04:27.834Z,12.20
2022-12-13T11:06:57.037Z,11.30
2022-12-13T11:09:38.699Z,13.40
2022-12-13T11:12:14.646Z,13.50
2022-12-13T11:14:53.530Z,12.70
2022-12-13T11:17:26.237Z,12.10
2022-12-13T11:19:58.658Z,13.30
2022-12-13T11:22:28.663Z,12.80
2022-12-13T11:25:01.044Z,11.80
2022-12-13T11:27:56.981Z,12.00
2022-12-13T11:30:31.440Z,10.80
2022-12-13T11:33:01.725Z,14.30
2022-12-13T11:35:48.572Z,11.90
2022-12-13T11:38:25.865Z,14.00
2022-12-13T11:40:59.836Z,14.30
2022-12-13T11:43:38.662Z,14.30
2022-12-13T11:46:17.273Z,13.80
2022-12-13T11:48:53.232Z,16.90
2022-12-13T11:51:33.734Z,18.40
2022-12-13T11:54:14.320Z,12.60
2022-12-13T11:57:00.320Z,12.20
2022-12-13T11:59:42.295Z,12.80
2022-12-13T12:02:17.535Z,14.10
2022-12-13T12:04:53.617Z,13.20
2022-12-13T12:08:12.592Z,13.30
2022-12-13T12:10:45.707Z,15.20
2022-12-13T12:13:21.928Z,12.40
2022-12-13T12:16:02.235Z,14.80
2022-12-13T12:18:29.692Z,14.50
2022-12-13T12:21:18.855Z,17.10
2022-12-13T12:23:55.444Z,14.90
2022-12-13T12:26:42.447Z,16.60
2022-12-13T12:29:36.957Z,10.40
2022-12-13T12:32:30.104Z,16.00
2022-12-13T12:35:07.826Z,15.50
2022-12-13T12:37:51.262Z,13.90
2022-12-13T12:41:16.717Z,13.30
2022-12-13T12:43:54.001Z,14.50
2022-12-13T12:47:08.945Z,15.80
2022-12-13T12:49:48.259Z,15.00
2022-12-13T12:52:26.959Z,15.50
2022-12-13T12:55:31.494Z,15.10
2022-12-13T12:58:25.749Z,16.30
2022-12-13T13:01:15.686Z,20.10
2022-12-13T13:03:46.979Z,19.30
2022-12-13T13:06:13.502Z,20.50
2022-12-13T13:08:55.946Z,19.60
2022-12-13T13:11:26.104Z,19.10
2022-12-13T13:14:25.057Z,26.00
2022-12-13T13:16:53.287Z,26.00
2022-12-13T13:19:25.643Z,18.90
2022-12-13T13:22:01.671Z,18.80
2022-12-13T13:24:31.931Z,18.40
2022-12-13T13:27:11.115Z,20.50
2022-12-13T13:29:43.979Z,20.20
2022-12-13T13:32:11.484Z,17.10
2022-12-13T13:34:45.057Z,23.30
2022-12-13T13:37:22.989Z,23.00
2022-12-13T13:40:12.487Z,20.00
2022-12-13T13:42:56.688Z,23.70
2022-12-13T13:45:27.786Z,19.40
2022-12-13T13:47:58.940Z,19.30
2022-12-13T13:50:44.484Z,20.50
2022-12-13T13:53:41.338Z,19.60
2022-12-13T13:56:51.550Z,20.50
2022-12-13T14:00:11.395Z,25.40
2022-12-13T14:03:41.941Z,22.60
2022-12-13T14:06:42.624Z,28.70
2022-12-13T14:09:53.048Z,28.80
2022-12-13T14:12:57.431Z,22.80
2022-12-13T14:16:09.483Z,22.40
2022-12-13T14:18:44.940Z,20.10
2022-12-13T14:21:42.604Z,17.60
2022-12-13T14:24:39.812Z,17.40
2022-12-13T14:27:34.153Z,16.80
2022-12-13T14:30:01.867Z,16.40
2022-12-13T14:32:50.819Z,17.30
2022-12-13T14:35:26.994Z,15.70
2022-12-13T14:38:05.641Z,17.60
2022-12-13T14:40:46.658Z,17.40
2022-12-13T14:43:28.695Z,16.40
2022-12-13T14:45:57.938Z,17.10
2022-12-13T14:48:28.002Z,16.80
2022-12-13T14:50:56.984Z,21.10
2022-12-13T14:53:28.856Z,18.80
2022-12-13T14:56:10.037Z,21.50
2022-12-13T14:58:51.722Z,22.40
2022-12-13T15:01:30.048Z,21.80
2022-12-13T15:04:25.802Z,23.20
2022-12-13T15:07:14.739Z,23.10
2022-12-13T15:09:47.654Z,19.50
2022-12-13T15:12:25.440Z,22.10
2022-12-13T15:15:02.249Z,23.10
2022-12-13T15:17:34.467Z,25.60
2022-12-13T15:20:30.688Z,26.20
2022-12-13T15:23:15.245Z,25.40
2022-12-13T15:25:45.109Z,28.00
2022-12-13T15:28:21.242Z,31.60
2022-12-13T15:31:00.217Z,35.10
2022-12-13T15:33:35.219Z,38.90
2022-12-13T15:36:24.919Z,32.70
2022-12-13T15:38:56.165Z,29.90
2022-12-13T15:41:37.891Z,30.40
2022-12-13T15:44:17.089Z,30.90
2022-12-13T15:46:45.557Z,32.90
2022-12-13T15:49:26.746Z,27.30
2022-12-13T15:52:11.466Z,19.80
2022-12-13T15:54:39.359Z,18.10
2022-12-13T15:57:15.308Z,18.00
2022-12-13T15:59:43.450Z,20.60
2022-12-13T16:02:16.929Z,20.70
2022-12-13T16:04:44.947Z,23.10
2022-12-13T16:07:29.516Z,22.20
2022-12-13T16:09:57.359Z,23.10
2022-12-13T16:12:35.881Z,22.40
2022-12-13T16:15:32.560Z,22.80
2022-12-13T16:18:07.521Z,21.40
2022-12-13T16:20:34.459Z,21.60
2022-12-13T16:23:08.962Z,24.10
2022-12-13T16:25:36.307Z,21.70
2022-12-13T16:28:03.606Z,24.50
2022-12-13T16:30:52.377Z,22.00
2022-12-13T16:33:26.977Z,22.10
2022-12-13T16:35:57.890Z,23.90
2022-12-13T16:38:27.857Z,23.80
2022-12-13T16:40:59.185Z,25.90
2022-12-13T16:43:33.467Z,25.90
2022-12-13T16:47:14.281Z,29.20
2022-12-13T16:49:02.593Z,28.60
2022-12-13T16:51:36.415Z,25.70
2022-12-13T16:54:03.088Z,26.00
2022-12-13T16:56:30.328Z,25.10
2022-12-13T16:58:58.822Z,23.70
2022-12-13T17:01:27.853Z,25.50
2022-12-13T17:03:54.670Z,27.60
2022-12-13T17:06:24.279Z,23.60
2022-12-13T17:08:51.697Z,25.90
2022-12-13T17:11:18.757Z,23.90
2022-12-13T17:13:47.730Z,25.30
2022-12-13T17:16:15.642Z,27.80
2022-12-13T17:18:42.719Z,27.40
2022-12-13T17:21:10.113Z,27.30
2022-12-13T17:23:36.967Z,39.90
2022-12-13T17:26:07.438Z,39.00
2022-12-13T17:28:34.938Z,39.00
2022-12-13T17:31:14.099Z,36.90
2022-12-13T17:33:42.142Z,33.90
2022-12-13T17:36:11.478Z,33.60
2022-12-13T17:38:45.016Z,37.80
2022-12-13T17:41:14.084Z,40.30
2022-12-13T17:43:48.646Z,40.00
2022-12-13T17:46:18.415Z,40.40
2022-12-13T17:48:47.034Z,42.70
2022-12-13T17:51:20.079Z,39.30
2022-12-13T17:53:57.126Z,44.90
2022-12-13T17:56:34.394Z,46.20
2022-12-13T17:59:09.746Z,43.00
2022-12-13T18:01:38.036Z,55.20
2022-12-13T18:04:05.342Z,46.80
2022-12-13T18:06:32.522Z,44.20
2022-12-13T18:09:06.177Z,50.10
2022-12-13T18:11:35.643Z,53.80
2022-12-13T18:14:05.482Z,51.00
2022-12-13T18:16:37.416Z,44.70
2022-12-13T18:19:09.103Z,45.40
2022-12-13T18:21:39.716Z,49.30
2022-12-13T18:24:07.672Z,49.10
2022-12-13T18:26:34.590Z,49.60
2022-12-13T18:29:02.598Z,46.90
2022-12-13T18:31:31.653Z,43.90
2022-12-13T18:34:00.447Z,46.30
2022-12-13T18:36:34.896Z,50.00
2022-12-13T18:39:02.340Z,50.70
2022-12-13T18:41:32.258Z,54.00
2022-12-13T18:44:08.405Z,48.90
2022-12-13T18:46:37.567Z,48.20
2022-12-13T18:49:07.098Z,48.50
2022-12-13T18:51:37.522Z,48.60
2022-12-13T18:54:05.316Z,47.10
2022-12-13T18:56:33.361Z,47.20
2022-12-13T18:59:03.126Z,43.00
2022-12-13T19:01:35.291Z,46.80
2022-12-13T19:04:03.452Z,46.30
2022-12-13T19:06:34.208Z,46.60
2022-12-13T19:09:04.681Z,49.70
2022-12-13T19:11:33.818Z,45.90
2022-12-13T19:14:01.895Z,45.50
2022-12-13T19:16:29.571Z,50.50
2022-12-13T19:18:58.109Z,50.70
2022-12-13T19:21:26.909Z,49.50
2022-12-13T19:23:57.954Z,48.90
2022-12-13T19:26:28.991Z,51.60
2022-12-13T19:28:58.891Z,46.80
2022-12-13T19:31:31.698Z,46.20
2022-12-13T19:34:04.852Z,48.50
2022-12-13T19:36:32.743Z,49.60
2022-12-13T19:39:01.069Z,49.10
2022-12-13T19:41:29.261Z,44.00
2022-12-13T19:43:56.803Z,46.00
2022-12-13T19:46:25.260Z,43.20
2022-12-13T19:48:53.522Z,49.40
2022-12-13T19:51:25.574Z,48.90
2022-12-13T19:53:53.004Z,50.80
2022-12-13T19:56:21.504Z,45.60
2022-12-13T19:58:50.115Z,46.70
2022-12-13T20:01:18.755Z,48.40
2022-12-13T20:03:47.866Z,51.60
2022-12-13T20:06:20.179Z,52.90
2022-12-13T20:08:48.377Z,52.70
2022-12-13T20:11:22.077Z,52.80
2022-12-13T20:13:52.697Z,49.70
2022-12-13T20:16:23.144Z,50.80
2022-12-13T20:18:58.864Z,47.70
2022-12-13T20:21:27.547Z,55.10
2022-12-13T20:23:59.711Z,52.60
2022-12-13T20:26:38.664Z,57.20
2022-12-13T20:29:16.438Z,51.50
2022-12-13T20:31:48.858Z,51.70
2022-12-13T20:34:18.235Z,52.30
2022-12-13T20:36:45.825Z,52.30
2022-12-13T20:39:14.447Z,54.60
2022-12-13T20:41:41.726Z,52.90
2022-12-13T20:44:12.139Z,48.00
2022-12-13T20:46:39.974Z,54.30
2022-12-13T20:49:09.375Z,54.70
2022-12-13T20:51:39.159Z,56.00
2022-12-13T20:54:11.153Z,55.10
2022-12-13T20:56:40.469Z,54.60
2022-12-13T20:59:11.806Z,52.90
2022-12-13T21:01:40.531Z,58.70
2022-12-13T21:04:11.106Z,57.90
2022-12-13T21:06:40.464Z,62.20
2022-12-13T21:09:09.393Z,65.30
2022-12-13T21:11:39.431Z,60.20
2022-12-13T21:14:20.751Z,61.70
2022-12-13T21:16:52.699Z,60.00
2022-12-13T21:19:23.912Z,60.70
2022-12-13T21:21:52.215Z,60.80
2022-12-13T21:24:21.184Z,63.10
2022-12-13T21:26:49.134Z,57.30
2022-12-13T21:29:16.810Z,64.00
2022-12-13T21:31:48.523Z,66.60
2022-12-13T21:34:17.880Z,65.30
2022-12-13T21:36:47.295Z,66.20
2022-12-13T21:39:19.196Z,66.80
2022-12-13T21:41:45.770Z,64.10
2022-12-13T21:44:14.991Z,70.80
2022-12-13T21:49:29.903Z,77.90
2022-12-13T21:51:56.710Z,87.70
2022-12-13T21:54:23.742Z,79.50
2022-12-13T21:57:09.560Z,76.80
2022-12-13T21:59:36.380Z,85.40
2022-12-13T22:02:12.868Z,98.20
2022-12-13T22:04:53.234Z,114.20
2022-12-13T22:07:29.853Z,97.20
2022-12-13T22:10:01.333Z,95.10
2022-12-13T22:12:44.248Z,89.50
2022-12-13T22:15:13.011Z,110.30
2022-12-13T22:17:40.811Z,123.60
2022-12-13T22:20:11.823Z,109.20
2022-12-13T22:22:41.230Z,116.70
2022-12-13T22:25:09.063Z,106.30
2022-12-13T22:27:36.330Z,111.20
2022-12-13T22:30:03.681Z,95.30
2022-12-13T22:32:31.659Z,97.00
2022-12-13T22:34:58.427Z,110.00
2022-12-13T22:37:25.132Z,108.40
2022-12-13T22:39:51.648Z,132.50
2022-12-13T22:42:19.474Z,132.30
2022-12-13T22:44:45.987Z,127.80
2022-12-13T22:47:12.797Z,115.30
2022-12-13T22:49:40.186Z,129.20
2022-12-13T22:52:07.796Z,143.90
2022-12-13T22:54:35.170Z,153.40
2022-12-13T22:57:02.402Z,155.60
2022-12-13T22:59:29.086Z,149.50
2022-12-13T23:02:01.629Z,153.40
2022-12-13T23:04:29.519Z,328.80
2022-12-13T23:06:57.229Z,406.30
2022-12-13T23:09:27.024Z,407.90
2022-12-13T23:12:12.993Z,359.00
2022-12-13T23:14:40.181Z,339.60
2022-12-13T23:17:06.949Z,351.40
2022-12-13T23:19:50.703Z,341.60
2022-12-13T23:22:24.980Z,379.00
2022-12-13T23:24:52.194Z,366.20
2022-12-13T23:27:20.680Z,321.20
2022-12-13T23:29:47.054Z,333.40
2022-12-13T23:32:14.480Z,297.60
2022-12-13T23:34:41.609Z,260.90
2022-12-13T23:37:08.072Z,246.90
2022-12-13T23:39:34.346Z,259.80
2022-12-13T23:42:00.695Z,256.20
2022-12-13T23:44:27.116Z,268.00
2022-12-13T23:46:54.548Z,269.90
2022-12-13T23:49:20.919Z,260.00
2022-12-13T23:51:47.227Z,265.90
2022-12-13T23:54:17.018Z,241.40
2022-12-13T23:56:43.427Z,221.30
2022-12-13T23:59:10.467Z,212.20
